createdAt,value
2019-05-16T00:00:24.874Z,9.16
2019-05-16T00:01:24.865Z,9.09
2019-05-16T00:02:24.853Z,9.11
2019-05-16T00:03:24.857Z,9.12
2019-05-16T00:04:24.851Z,9.14
2019-05-16T00:05:24.821Z,9.08
2019-05-16T00:06:24.807Z,9.18
2019-05-16T00:07:24.799Z,9.14
2019-05-16T00:08:24.787Z,9.08
2019-05-16T00:09:24.811Z,9.06
2019-05-16T00:10:24.770Z,9.09
2019-05-16T00:11:24.753Z,9.03
2019-05-16T00:12:24.743Z,9.06
2019-05-16T00:13:24.740Z,8.88
2019-05-16T00:14:24.738Z,8.89
2019-05-16T00:15:24.744Z,8.89
2019-05-16T00:16:24.736Z,8.86
2019-05-16T00:17:24.690Z,8.93
2019-05-16T00:18:24.680Z,8.92
2019-05-16T00:19:24.680Z,8.86
2019-05-16T00:20:24.654Z,8.85
2019-05-16T00:21:24.643Z,8.86
2019-05-16T00:22:24.638Z,8.83
2019-05-16T00:23:24.625Z,8.80
2019-05-16T00:24:24.626Z,8.81
2019-05-16T00:25:24.598Z,8.80
2019-05-16T00:26:24.592Z,8.81
2019-05-16T00:27:24.574Z,8.78
2019-05-16T00:28:24.563Z,8.77
2019-05-16T00:29:24.864Z,8.75
2019-05-16T00:30:24.548Z,8.74
2019-05-16T00:31:24.537Z,8.71
2019-05-16T00:32:24.518Z,8.72
2019-05-16T00:33:24.508Z,8.78
2019-05-16T00:34:24.504Z,8.67
2019-05-16T00:35:24.512Z,8.67
2019-05-16T00:36:24.482Z,8.56
2019-05-16T00:37:24.468Z,8.63
2019-05-16T00:38:24.452Z,8.65
2019-05-16T00:39:24.459Z,8.57
2019-05-16T00:40:24.448Z,8.59
2019-05-16T00:41:24.422Z,8.62
2019-05-16T00:42:24.442Z,8.57
2019-05-16T00:43:24.408Z,8.65
2019-05-16T00:44:24.411Z,8.56
2019-05-16T00:45:24.404Z,8.53
2019-05-16T00:46:24.372Z,8.57
2019-05-16T00:47:24.354Z,8.63
2019-05-16T00:48:24.342Z,8.59
2019-05-16T00:49:24.336Z,8.55
2019-05-16T00:50:24.335Z,8.50
2019-05-16T00:51:24.319Z,8.55
2019-05-16T00:52:24.298Z,8.56
2019-05-16T00:53:24.290Z,8.50
2019-05-16T00:54:24.285Z,8.59
2019-05-16T00:55:24.282Z,8.50
2019-05-16T00:56:24.258Z,8.59
2019-05-16T00:57:24.249Z,8.57
2019-05-16T00:58:24.270Z,8.55
2019-05-16T00:59:24.230Z,8.53
2019-05-16T01:00:24.226Z,8.55
2019-05-16T01:01:24.205Z,8.50
2019-05-16T01:02:24.187Z,8.50
2019-05-16T01:03:24.175Z,8.57
2019-05-16T01:04:24.169Z,8.49
2019-05-16T01:05:24.181Z,8.56
2019-05-16T01:06:24.148Z,8.50
2019-05-16T01:07:24.175Z,8.55
2019-05-16T01:08:24.122Z,8.50
2019-05-16T01:09:24.112Z,8.53
2019-05-16T01:10:24.113Z,8.50
2019-05-16T01:11:24.093Z,8.53
2019-05-16T01:12:24.079Z,8.55
2019-05-16T01:13:24.089Z,8.52
2019-05-16T01:14:24.053Z,8.52
2019-05-16T01:15:24.065Z,8.55
2019-05-16T01:16:24.031Z,8.50
2019-05-16T01:17:24.027Z,8.50
2019-05-16T01:18:24.014Z,8.39
2019-05-16T01:19:24.013Z,8.46
2019-05-16T01:20:23.999Z,8.52
2019-05-16T01:21:24.011Z,8.49
2019-05-16T01:22:23.963Z,8.50
2019-05-16T01:23:23.955Z,8.47
2019-05-16T01:24:23.949Z,8.50
2019-05-16T01:25:23.949Z,8.50
2019-05-16T01:26:23.946Z,8.53
2019-05-16T01:27:23.913Z,8.56
2019-05-16T01:28:23.899Z,8.52
2019-05-16T01:29:23.889Z,8.50
2019-05-16T01:30:23.897Z,8.53
2019-05-16T01:31:23.879Z,8.55
2019-05-16T01:32:23.905Z,8.49
2019-05-16T01:33:23.845Z,8.50
2019-05-16T01:34:23.833Z,8.53
2019-05-16T01:35:23.843Z,8.52
2019-05-16T01:36:36.108Z,8.50
2019-05-16T01:37:24.795Z,8.44
2019-05-16T01:38:23.794Z,8.55
2019-05-16T01:39:23.816Z,8.56
2019-05-16T01:40:23.783Z,8.56
2019-05-16T01:41:23.772Z,8.59
2019-05-16T01:42:23.744Z,8.65
2019-05-16T01:43:23.732Z,8.50
2019-05-16T01:44:23.722Z,8.65
2019-05-16T01:45:23.778Z,8.57
2019-05-16T01:46:23.702Z,8.57
2019-05-16T01:47:23.692Z,8.52
2019-05-16T01:48:23.687Z,8.62
2019-05-16T01:49:23.665Z,8.62
2019-05-16T01:50:23.672Z,8.65
2019-05-16T01:51:23.673Z,8.60
2019-05-16T01:52:23.652Z,8.60
2019-05-16T01:53:23.624Z,8.62
2019-05-16T01:54:23.612Z,8.63
2019-05-16T01:55:23.632Z,8.59
2019-05-16T01:56:23.586Z,8.59
2019-05-16T01:57:23.592Z,8.65
2019-05-16T01:58:23.564Z,8.67
2019-05-16T01:59:23.555Z,8.67
2019-05-16T02:00:25.859Z,8.65
2019-05-16T02:01:24.545Z,8.62
2019-05-16T02:02:23.520Z,8.62
2019-05-16T02:03:23.520Z,8.67
2019-05-16T02:04:23.498Z,8.68
2019-05-16T02:05:23.488Z,8.62
2019-05-16T02:06:23.496Z,8.71
2019-05-16T02:07:23.468Z,8.70
2019-05-16T02:08:23.462Z,8.72
2019-05-16T02:09:23.443Z,8.70
2019-05-16T02:10:23.457Z,8.71
2019-05-16T02:11:23.449Z,8.65
2019-05-16T02:12:23.428Z,8.74
2019-05-16T02:13:23.456Z,8.68
2019-05-16T02:14:23.390Z,8.67
2019-05-16T02:15:23.378Z,8.75
2019-05-16T02:16:23.375Z,8.71
2019-05-16T02:17:23.356Z,8.72
2019-05-16T02:18:23.359Z,8.75
2019-05-16T02:19:23.331Z,8.71
2019-05-16T02:20:23.331Z,8.75
2019-05-16T02:21:23.329Z,8.74
2019-05-16T02:22:23.297Z,8.77
2019-05-16T02:23:23.288Z,8.75
2019-05-16T02:24:23.333Z,8.80
2019-05-16T02:25:23.269Z,8.77
2019-05-16T02:26:23.272Z,8.78
2019-05-16T02:27:23.246Z,8.74
2019-05-16T02:28:29.554Z,8.81
2019-05-16T02:29:24.251Z,8.77
2019-05-16T02:30:23.249Z,8.85
2019-05-16T02:31:23.218Z,8.77
2019-05-16T02:32:23.192Z,8.80
2019-05-16T02:33:23.177Z,8.83
2019-05-16T02:34:23.161Z,8.80
2019-05-16T02:35:23.160Z,8.72
2019-05-16T02:36:23.182Z,8.80
2019-05-16T02:37:29.157Z,8.81
2019-05-16T02:38:24.123Z,8.83
2019-05-16T02:39:23.135Z,8.83
2019-05-16T02:40:23.100Z,8.78
2019-05-16T02:41:23.097Z,8.81
2019-05-16T02:42:23.091Z,8.86
2019-05-16T02:43:26.176Z,8.86
2019-05-16T02:44:24.545Z,8.83
2019-05-16T02:45:24.479Z,8.86
2019-05-16T02:46:23.049Z,8.83
2019-05-16T02:47:23.021Z,8.86
2019-05-16T02:48:23.031Z,8.83
2019-05-16T02:49:23.011Z,8.85
2019-05-16T02:50:23.042Z,8.83
2019-05-16T02:51:23.004Z,8.83
2019-05-16T02:52:22.978Z,8.83
2019-05-16T02:53:22.957Z,8.88
2019-05-16T02:54:22.945Z,8.86
2019-05-16T02:55:22.963Z,8.81
2019-05-16T02:56:22.949Z,8.81
2019-05-16T02:57:22.911Z,8.81
2019-05-16T02:58:23.762Z,8.80
2019-05-16T02:59:22.887Z,8.85
2019-05-16T03:00:22.879Z,8.83
2019-05-16T03:01:22.887Z,8.85
2019-05-16T03:02:22.923Z,8.77
2019-05-16T03:03:22.844Z,8.74
2019-05-16T03:04:22.835Z,8.85
2019-05-16T03:05:22.841Z,8.70
2019-05-16T03:06:22.809Z,8.80
2019-05-16T03:07:36.777Z,8.77
2019-05-16T03:08:23.794Z,8.74
2019-05-16T03:09:22.793Z,8.74
2019-05-16T03:10:22.767Z,8.75
2019-05-16T03:11:22.774Z,8.70
2019-05-16T03:12:22.762Z,8.77
2019-05-16T03:13:22.732Z,8.72
2019-05-16T03:14:22.721Z,8.74
2019-05-16T03:15:22.708Z,8.70
2019-05-16T03:16:22.704Z,8.74
2019-05-16T03:17:22.728Z,8.78
2019-05-16T03:18:22.684Z,8.80
2019-05-16T03:19:22.674Z,8.85
2019-05-16T03:20:22.658Z,8.77
2019-05-16T03:21:22.649Z,8.71
2019-05-16T03:22:22.667Z,8.77
2019-05-16T03:23:22.628Z,8.78
2019-05-16T03:24:22.610Z,8.78
2019-05-16T03:25:22.617Z,8.83
2019-05-16T03:26:22.595Z,8.80
2019-05-16T03:27:22.574Z,8.78
2019-05-16T03:28:22.607Z,8.83
2019-05-16T03:29:22.564Z,8.88
2019-05-16T03:30:24.019Z,8.90
2019-05-16T03:31:24.698Z,8.92
2019-05-16T03:32:24.345Z,8.88
2019-05-16T03:33:30.879Z,8.93
2019-05-16T03:34:25.900Z,8.90
2019-05-16T03:35:24.495Z,8.92
2019-05-16T03:36:25.185Z,8.88
2019-05-16T03:37:24.878Z,8.92
2019-05-16T03:38:22.491Z,8.99
2019-05-16T03:39:22.448Z,8.89
2019-05-16T03:40:22.433Z,8.92
2019-05-16T03:41:22.423Z,9.01
2019-05-16T03:42:22.410Z,8.98
2019-05-16T03:43:22.444Z,8.95
2019-05-16T03:44:22.385Z,9.12
2019-05-16T03:45:22.385Z,9.12
2019-05-16T03:46:22.383Z,9.01
2019-05-16T03:47:22.356Z,8.99
2019-05-16T03:48:22.365Z,9.04
2019-05-16T03:49:22.334Z,8.99
2019-05-16T03:50:22.341Z,8.96
2019-05-16T03:51:22.331Z,9.01
2019-05-16T03:52:22.315Z,9.04
2019-05-16T03:53:22.304Z,9.09
2019-05-16T03:54:22.277Z,9.08
2019-05-16T03:55:22.271Z,9.14
2019-05-16T03:56:22.271Z,9.12
2019-05-16T03:57:22.251Z,9.18
2019-05-16T03:58:22.822Z,9.11
2019-05-16T03:59:22.275Z,9.12
2019-05-16T04:00:22.216Z,9.09
2019-05-16T04:01:22.203Z,9.09
2019-05-16T04:02:22.186Z,9.18
2019-05-16T04:03:22.209Z,9.11
2019-05-16T04:04:22.171Z,9.23
2019-05-16T04:05:22.154Z,9.11
2019-05-16T04:06:22.392Z,9.22
2019-05-16T04:07:22.155Z,9.24
2019-05-16T04:08:25.006Z,9.22
2019-05-16T04:09:22.111Z,9.22
2019-05-16T04:10:22.112Z,9.30
2019-05-16T04:11:23.270Z,9.23
2019-05-16T04:12:22.080Z,9.26
2019-05-16T04:13:22.427Z,9.27
2019-05-16T04:14:22.090Z,9.33
2019-05-16T04:15:22.043Z,9.34
2019-05-16T04:16:22.032Z,9.32
2019-05-16T04:17:22.022Z,9.26
2019-05-16T04:18:22.586Z,9.37
2019-05-16T04:19:22.015Z,9.33
2019-05-16T04:20:21.992Z,9.34
2019-05-16T04:21:22.277Z,9.36
2019-05-16T04:22:21.969Z,9.37
2019-05-16T04:23:22.059Z,9.36
2019-05-16T04:24:21.975Z,9.24
2019-05-16T04:25:21.931Z,9.24
2019-05-16T04:26:22.117Z,9.32
2019-05-16T04:27:21.912Z,9.33
2019-05-16T04:28:22.569Z,9.26
2019-05-16T04:29:21.891Z,9.42
2019-05-16T04:30:22.224Z,9.24
2019-05-16T04:31:22.264Z,9.33
2019-05-16T04:32:21.863Z,9.34
2019-05-16T04:33:22.591Z,9.33
2019-05-16T04:34:21.869Z,9.40
2019-05-16T04:35:21.824Z,9.40
2019-05-16T04:36:21.816Z,9.37
2019-05-16T04:37:26.026Z,9.34
2019-05-16T04:38:34.948Z,9.40
2019-05-16T04:39:22.793Z,9.33
2019-05-16T04:40:22.150Z,9.36
2019-05-16T04:41:21.784Z,9.34
2019-05-16T04:42:21.752Z,9.41
2019-05-16T04:43:22.606Z,9.33
2019-05-16T04:44:21.746Z,9.34
2019-05-16T04:45:21.714Z,9.37
2019-05-16T04:46:21.813Z,9.42
2019-05-16T04:47:21.731Z,9.36
2019-05-16T04:48:22.764Z,9.34
2019-05-16T04:49:21.692Z,9.37
2019-05-16T04:50:21.673Z,9.51
2019-05-16T04:51:22.172Z,9.48
2019-05-16T04:52:21.988Z,9.48
2019-05-16T04:53:21.993Z,9.57
2019-05-16T04:54:21.880Z,9.41
2019-05-16T04:55:21.608Z,9.36
2019-05-16T04:56:22.034Z,9.40
2019-05-16T04:57:21.589Z,9.42
2019-05-16T04:58:23.819Z,9.47
2019-05-16T04:59:21.576Z,9.48
2019-05-16T05:00:21.610Z,9.45
2019-05-16T05:01:21.848Z,9.52
2019-05-16T05:02:21.566Z,9.47
2019-05-16T05:03:21.534Z,9.48
2019-05-16T05:04:21.603Z,9.52
2019-05-16T05:05:21.785Z,9.48
2019-05-16T05:06:21.502Z,9.47
2019-05-16T05:07:21.484Z,9.42
2019-05-16T05:08:22.495Z,9.40
2019-05-16T05:09:21.471Z,9.42
2019-05-16T05:10:21.451Z,9.47
2019-05-16T05:11:21.811Z,9.44
2019-05-16T05:12:21.453Z,9.54
2019-05-16T05:13:22.531Z,9.51
2019-05-16T05:14:21.418Z,9.41
2019-05-16T05:15:21.531Z,9.55
2019-05-16T05:16:21.397Z,9.52
2019-05-16T05:17:21.375Z,9.51
2019-05-16T05:18:21.799Z,9.52
2019-05-16T05:19:21.357Z,9.55
2019-05-16T05:20:21.351Z,9.57
2019-05-16T05:21:21.326Z,9.62
2019-05-16T05:22:21.323Z,9.57
2019-05-16T05:23:21.431Z,9.47
2019-05-16T05:24:21.402Z,9.55
2019-05-16T05:25:21.283Z,9.52
2019-05-16T05:26:21.299Z,9.52
2019-05-16T05:27:21.257Z,9.55
2019-05-16T05:28:21.544Z,9.60
2019-05-16T05:29:21.251Z,9.57
2019-05-16T05:30:21.233Z,9.59
2019-05-16T05:31:24.709Z,9.63
2019-05-16T05:32:21.209Z,9.62
2019-05-16T05:33:21.467Z,9.60
2019-05-16T05:34:21.203Z,9.57
2019-05-16T05:35:21.181Z,9.62
2019-05-16T05:36:21.299Z,9.66
2019-05-16T05:37:21.154Z,9.67
2019-05-16T05:38:21.724Z,9.59
2019-05-16T05:39:21.144Z,9.57
2019-05-16T05:40:21.139Z,9.62
2019-05-16T05:41:21.116Z,9.60
2019-05-16T05:42:21.101Z,9.66
2019-05-16T05:43:21.732Z,9.62
2019-05-16T05:44:21.097Z,9.59
2019-05-16T05:45:21.079Z,9.65
2019-05-16T05:46:21.070Z,9.65
2019-05-16T05:47:21.055Z,9.60
2019-05-16T05:48:21.897Z,9.65
2019-05-16T05:49:21.042Z,9.63
2019-05-16T05:50:21.013Z,9.60
2019-05-16T05:51:21.009Z,9.75
2019-05-16T05:52:21.014Z,9.66
2019-05-16T05:53:21.297Z,9.72
2019-05-16T05:54:21.011Z,9.81
2019-05-16T05:55:20.960Z,9.80
2019-05-16T05:56:20.950Z,9.78
2019-05-16T05:57:21.032Z,9.90
2019-05-16T05:58:21.085Z,9.83
2019-05-16T05:59:20.931Z,9.84
2019-05-16T06:00:21.261Z,9.88
2019-05-16T06:01:20.931Z,9.90
2019-05-16T06:02:20.889Z,9.98
2019-05-16T06:03:22.398Z,9.87
2019-05-16T06:04:20.879Z,9.90
2019-05-16T06:05:20.850Z,9.98
2019-05-16T06:06:21.248Z,9.94
2019-05-16T06:07:20.830Z,9.96
2019-05-16T06:08:20.818Z,9.91
2019-05-16T06:09:28.310Z,10.01
2019-05-16T06:10:21.820Z,10.02
2019-05-16T06:11:20.787Z,10.03
2019-05-16T06:12:21.397Z,10.03
2019-05-16T06:13:21.150Z,10.02
2019-05-16T06:14:21.405Z,9.99
2019-05-16T06:15:20.744Z,10.01
2019-05-16T06:16:20.752Z,9.99
2019-05-16T06:17:20.762Z,10.09
2019-05-16T06:18:20.724Z,10.12
2019-05-16T06:19:20.749Z,10.06
2019-05-16T06:20:20.697Z,10.12
2019-05-16T06:21:20.684Z,10.08
2019-05-16T06:22:20.694Z,10.09
2019-05-16T06:23:21.124Z,10.18
2019-05-16T06:24:20.677Z,10.09
2019-05-16T06:25:22.895Z,10.14
2019-05-16T06:26:20.742Z,10.05
2019-05-16T06:27:21.060Z,10.14
2019-05-16T06:28:21.253Z,10.14
2019-05-16T06:29:20.626Z,10.06
2019-05-16T06:30:21.293Z,10.08
2019-05-16T06:31:22.169Z,10.09
2019-05-16T06:32:20.577Z,10.09
2019-05-16T06:33:20.565Z,10.14
2019-05-16T06:34:21.061Z,10.30
2019-05-16T06:35:23.945Z,10.18
2019-05-16T06:36:20.637Z,10.23
2019-05-16T06:37:20.699Z,10.28
2019-05-16T06:38:21.232Z,10.34
2019-05-16T06:39:20.477Z,10.24
2019-05-16T06:40:20.477Z,10.30
2019-05-16T06:41:20.455Z,10.48
2019-05-16T06:42:20.704Z,10.38
2019-05-16T06:43:20.782Z,10.46
2019-05-16T06:44:20.454Z,10.43
2019-05-16T06:45:20.673Z,10.41
2019-05-16T06:46:20.408Z,10.49
2019-05-16T06:47:22.981Z,10.54
2019-05-16T06:48:21.269Z,10.54
2019-05-16T06:49:20.368Z,10.58
2019-05-16T06:50:20.958Z,10.60
2019-05-16T06:51:20.341Z,10.62
2019-05-16T06:52:20.362Z,10.57
2019-05-16T06:53:20.907Z,10.54
2019-05-16T06:54:20.812Z,10.43
2019-05-16T06:55:20.619Z,10.35
2019-05-16T06:56:20.305Z,10.39
2019-05-16T06:57:20.704Z,10.48
2019-05-16T06:58:22.193Z,10.34
2019-05-16T06:59:20.387Z,10.34
2019-05-16T07:00:20.985Z,10.30
2019-05-16T07:01:20.817Z,10.28
2019-05-16T07:02:30.430Z,10.31
2019-05-16T07:03:21.214Z,10.31
2019-05-16T07:04:20.258Z,10.34
2019-05-16T07:05:20.941Z,10.26
2019-05-16T07:06:45.668Z,10.30
2019-05-16T07:07:21.171Z,10.46
2019-05-16T07:08:20.833Z,10.43
2019-05-16T07:09:20.689Z,10.49
2019-05-16T07:10:20.478Z,10.55
2019-05-16T07:11:20.317Z,10.49
2019-05-16T07:12:20.345Z,10.55
2019-05-16T07:13:20.116Z,10.48
2019-05-16T07:14:22.877Z,10.57
2019-05-16T07:15:20.725Z,10.67
2019-05-16T07:16:20.703Z,10.64
2019-05-16T07:17:20.342Z,10.60
2019-05-16T07:18:21.423Z,10.52
2019-05-16T07:19:20.771Z,10.61
2019-05-16T07:20:20.970Z,10.67
2019-05-16T07:21:20.374Z,10.60
2019-05-16T07:22:20.641Z,10.61
2019-05-16T07:23:21.050Z,10.72
2019-05-16T07:24:19.984Z,10.65
2019-05-16T07:25:20.803Z,10.68
2019-05-16T07:26:20.499Z,10.67
2019-05-16T07:27:21.846Z,10.72
2019-05-16T07:28:20.955Z,10.70
2019-05-16T07:29:20.353Z,10.72
2019-05-16T07:30:20.091Z,10.67
2019-05-16T07:31:22.440Z,10.70
2019-05-16T07:32:20.026Z,10.70
2019-05-16T07:33:21.175Z,10.75
2019-05-16T07:34:20.655Z,10.78
2019-05-16T07:35:20.519Z,10.78
2019-05-16T07:36:20.865Z,10.75
2019-05-16T07:37:20.192Z,10.70
2019-05-16T07:38:20.525Z,10.76
2019-05-16T07:39:20.097Z,10.73
2019-05-16T07:40:26.426Z,10.79
2019-05-16T07:41:20.839Z,10.75
2019-05-16T07:42:20.141Z,10.72
2019-05-16T07:43:20.538Z,10.76
2019-05-16T07:44:20.860Z,10.73
2019-05-16T07:45:20.381Z,10.79
2019-05-16T07:46:20.633Z,10.79
2019-05-16T07:47:20.302Z,10.78
2019-05-16T07:48:21.493Z,10.83
2019-05-16T07:49:19.830Z,10.82
2019-05-16T07:50:20.338Z,10.86
2019-05-16T07:51:20.567Z,10.90
2019-05-16T07:52:20.853Z,10.85
2019-05-16T07:53:21.386Z,10.87
2019-05-16T07:54:21.415Z,10.87
2019-05-16T07:55:20.803Z,10.87
2019-05-16T07:56:20.358Z,10.87
2019-05-16T07:57:22.663Z,10.87
2019-05-16T07:58:21.680Z,10.82
2019-05-16T07:59:20.457Z,10.91
2019-05-16T08:00:21.536Z,10.90
2019-05-16T08:01:20.095Z,10.87
2019-05-16T08:02:20.805Z,10.87
2019-05-16T08:03:20.041Z,10.80
2019-05-16T08:04:19.919Z,10.75
2019-05-16T08:05:21.089Z,10.79
2019-05-16T08:06:20.089Z,10.78
2019-05-16T08:07:20.089Z,10.75
2019-05-16T08:08:23.335Z,10.79
2019-05-16T08:09:21.116Z,10.85
2019-05-16T08:10:35.864Z,10.80
2019-05-16T08:11:23.521Z,10.86
2019-05-16T08:12:25.515Z,10.82
2019-05-16T08:13:21.323Z,10.86
2019-05-16T08:14:21.274Z,10.85
2019-05-16T08:15:21.231Z,10.93
2019-05-16T08:16:20.747Z,10.93
2019-05-16T08:17:21.662Z,10.94
2019-05-16T08:18:21.472Z,10.93
2019-05-16T08:19:20.328Z,10.98
2019-05-16T08:20:21.398Z,10.93
2019-05-16T08:21:20.235Z,10.94
2019-05-16T08:22:22.187Z,10.86
2019-05-16T08:23:21.896Z,10.85
2019-05-16T08:24:20.519Z,10.93
2019-05-16T08:25:20.374Z,10.82
2019-05-16T08:26:21.995Z,10.95
2019-05-16T08:27:20.828Z,10.94
2019-05-16T08:28:21.483Z,10.94
2019-05-16T08:29:21.992Z,11.03
2019-05-16T08:30:20.964Z,11.03
2019-05-16T08:31:21.463Z,11.00
2019-05-16T08:32:23.063Z,10.95
2019-05-16T08:34:20.918Z,11.04
2019-05-16T08:35:21.133Z,11.11
2019-05-16T08:36:21.010Z,11.00
2019-05-16T08:38:21.463Z,11.09
2019-05-16T08:39:21.458Z,11.09
2019-05-16T08:40:21.371Z,11.08
2019-05-16T08:41:22.149Z,11.11
2019-05-16T08:42:20.970Z,11.05
2019-05-16T08:43:21.780Z,11.04
2019-05-16T08:44:21.530Z,11.12
2019-05-16T08:45:21.199Z,11.18
2019-05-16T08:46:20.747Z,11.19
2019-05-16T08:47:21.292Z,11.19
2019-05-16T08:48:23.095Z,11.20
2019-05-16T08:49:22.153Z,11.23
2019-05-16T08:50:11.556Z,11.01
2019-05-16T08:50:21.664Z,11.27
2019-05-16T08:51:22.348Z,11.28
2019-05-16T08:52:22.432Z,11.37
2019-05-16T08:53:21.604Z,11.43
2019-05-16T08:54:21.412Z,11.37
2019-05-16T08:55:21.752Z,11.40
2019-05-16T08:56:22.043Z,11.38
2019-05-16T08:57:27.557Z,11.40
2019-05-16T08:58:22.543Z,11.41
2019-05-16T08:59:21.461Z,11.38
2019-05-16T09:00:21.783Z,11.46
2019-05-16T09:01:21.650Z,11.46
2019-05-16T09:02:22.115Z,11.46
2019-05-16T09:03:22.217Z,11.48
2019-05-16T09:04:23.890Z,11.49
2019-05-16T09:05:22.706Z,11.45
2019-05-16T09:06:22.589Z,11.54
2019-05-16T09:07:22.752Z,11.61
2019-05-16T09:08:18.868Z,11.52
2019-05-16T09:09:44.065Z,11.52
2019-05-16T09:10:35.110Z,11.03
2019-05-16T09:10:50.027Z,11.54
2019-05-16T09:12:19.825Z,11.59
2019-05-16T09:13:18.812Z,11.61
2019-05-16T09:14:18.785Z,11.61
2019-05-16T09:15:18.812Z,11.59
2019-05-16T09:16:18.763Z,11.70
2019-05-16T09:17:18.754Z,11.74
2019-05-16T09:18:18.766Z,11.70
2019-05-16T09:18:37.937Z,11.56
2019-05-16T09:19:18.732Z,11.79
2019-05-16T09:20:18.750Z,11.79
2019-05-16T09:21:18.731Z,11.80
2019-05-16T09:22:18.700Z,11.73
2019-05-16T09:23:18.707Z,11.79
2019-05-16T09:24:18.679Z,11.84
2019-05-16T09:25:18.845Z,11.80
2019-05-16T09:26:19.781Z,11.84
2019-05-16T09:27:18.701Z,11.79
2019-05-16T09:28:18.685Z,11.82
2019-05-16T09:29:18.621Z,11.79
2019-05-16T09:30:18.611Z,11.79
2019-05-16T09:31:18.603Z,11.69
2019-05-16T09:32:28.325Z,11.70
2019-05-16T09:33:19.592Z,11.76
2019-05-16T09:34:18.569Z,11.80
2019-05-16T09:35:18.587Z,11.74
2019-05-16T09:36:18.538Z,11.64
2019-05-16T09:37:18.566Z,11.62
2019-05-16T09:38:23.503Z,11.62
2019-05-16T09:39:19.528Z,11.62
2019-05-16T09:40:18.493Z,11.61
2019-05-16T09:41:18.486Z,11.59
2019-05-16T09:42:18.474Z,11.52
2019-05-16T09:43:18.467Z,11.54
2019-05-16T09:44:18.668Z,11.55
2019-05-16T09:45:18.511Z,11.56
2019-05-16T09:46:18.435Z,11.56
2019-05-16T09:47:18.425Z,11.61
2019-05-16T09:48:19.135Z,11.58
2019-05-16T09:49:24.141Z,11.59
2019-05-16T09:50:19.390Z,11.61
2019-05-16T09:51:21.250Z,11.70
2019-05-16T09:52:18.368Z,11.70
2019-05-16T09:53:18.369Z,11.74
2019-05-16T09:54:18.389Z,11.71
2019-05-16T09:55:18.334Z,11.71
2019-05-16T09:56:18.367Z,11.61
2019-05-16T09:57:18.351Z,11.74
2019-05-16T09:58:18.736Z,11.62
2019-05-16T09:59:18.307Z,11.61
2019-05-16T10:00:18.285Z,11.64
2019-05-16T10:01:18.267Z,11.69
2019-05-16T10:02:18.294Z,11.59
2019-05-16T10:03:22.477Z,11.70
2019-05-16T10:04:18.266Z,11.66
2019-05-16T10:05:18.226Z,11.66
2019-05-16T10:06:19.199Z,11.66
2019-05-16T10:07:18.237Z,11.56
2019-05-16T10:08:18.188Z,11.62
2019-05-16T10:09:18.204Z,11.67
2019-05-16T10:10:18.172Z,11.62
2019-05-16T10:11:18.412Z,11.52
2019-05-16T10:12:18.776Z,11.54
2019-05-16T10:13:18.523Z,11.64
2019-05-16T10:14:18.186Z,11.58
2019-05-16T10:15:18.130Z,11.56
2019-05-16T10:16:18.132Z,11.62
2019-05-16T10:17:18.100Z,11.67
2019-05-16T10:18:18.103Z,11.70
2019-05-16T10:19:18.089Z,11.69
2019-05-16T10:20:18.062Z,11.66
2019-05-16T10:21:20.669Z,11.59
2019-05-16T10:22:18.100Z,11.69
2019-05-16T10:23:18.268Z,11.71
2019-05-16T10:24:18.064Z,11.74
2019-05-16T10:25:19.564Z,11.76
2019-05-16T10:26:19.424Z,11.80
2019-05-16T10:27:17.984Z,11.84
2019-05-16T10:28:20.017Z,11.89
2019-05-16T10:29:18.622Z,11.89
2019-05-16T10:30:17.980Z,11.88
2019-05-16T10:31:18.080Z,11.93
2019-05-16T10:32:17.937Z,12.00
2019-05-16T10:33:19.200Z,12.14
2019-05-16T10:34:17.907Z,12.13
2019-05-16T10:35:17.918Z,12.23
2019-05-16T10:36:21.609Z,12.23
2019-05-16T10:37:17.927Z,12.36
2019-05-16T10:38:17.876Z,12.32
2019-05-16T10:39:17.850Z,12.43
2019-05-16T10:40:18.354Z,12.46
2019-05-16T10:41:17.838Z,12.51
2019-05-16T10:42:28.119Z,12.43
2019-05-16T10:43:18.807Z,12.53
2019-05-16T10:44:17.848Z,12.59
2019-05-16T10:45:17.800Z,12.55
2019-05-16T10:46:17.956Z,12.58
2019-05-16T10:47:17.769Z,12.54
2019-05-16T10:48:17.818Z,12.63
2019-05-16T10:49:32.805Z,12.59
2019-05-16T10:50:18.787Z,12.54
2019-05-16T10:51:17.724Z,12.54
2019-05-16T10:52:17.746Z,12.48
2019-05-16T10:53:41.840Z,12.47
2019-05-16T10:54:18.989Z,12.48
2019-05-16T10:55:17.953Z,12.53
2019-05-16T10:56:17.686Z,12.55
2019-05-16T10:57:17.713Z,12.62
2019-05-16T10:58:35.052Z,12.59
2019-05-16T10:59:57.917Z,12.62
2019-05-16T11:00:45.877Z,12.59
2019-05-16T11:01:27.084Z,12.73
2019-05-16T11:02:18.800Z,12.73
2019-05-16T11:03:17.591Z,12.72
2019-05-16T11:04:28.631Z,12.69
2019-05-16T11:05:29.971Z,12.66
2019-05-16T11:06:25.905Z,12.69
2019-05-16T11:07:18.551Z,12.71
2019-05-16T11:08:17.539Z,12.81
2019-05-16T11:09:17.561Z,12.96
2019-05-16T11:10:17.561Z,13.06
2019-05-16T11:11:19.865Z,13.01
2019-05-16T11:12:20.450Z,13.01
2019-05-16T11:13:20.332Z,13.05
2019-05-16T11:14:17.583Z,13.13
2019-05-16T11:15:17.480Z,13.27
2019-05-16T11:16:17.542Z,13.32
2019-05-16T11:17:19.080Z,13.38
2019-05-16T11:18:17.661Z,13.46
2019-05-16T11:19:23.661Z,13.46
2019-05-16T11:20:20.068Z,13.43
2019-05-16T11:21:19.323Z,13.49
2019-05-16T11:22:17.385Z,13.55
2019-05-16T11:23:22.907Z,13.55
2019-05-16T11:24:18.425Z,13.47
2019-05-16T11:25:27.954Z,13.49
2019-05-16T11:26:18.342Z,13.36
2019-05-16T11:27:17.329Z,13.23
2019-05-16T11:28:17.842Z,13.30
2019-05-16T11:29:17.309Z,13.38
2019-05-16T11:30:18.198Z,13.32
2019-05-16T11:31:17.725Z,13.40
2019-05-16T11:32:17.270Z,13.47
2019-05-16T11:33:17.610Z,13.51
2019-05-16T11:34:17.478Z,13.38
2019-05-16T11:35:17.449Z,13.29
2019-05-16T11:36:17.242Z,13.29
2019-05-16T11:37:17.794Z,13.29
2019-05-16T11:38:17.921Z,13.42
2019-05-16T11:39:17.461Z,13.39
2019-05-16T11:40:17.917Z,13.32
2019-05-16T11:41:17.204Z,13.32
2019-05-16T11:42:17.656Z,13.40
2019-05-16T11:43:21.033Z,13.29
2019-05-16T11:44:17.749Z,13.32
2019-05-16T11:45:17.142Z,13.42
2019-05-16T11:46:17.134Z,13.45
2019-05-16T11:47:17.125Z,13.35
2019-05-16T11:48:17.338Z,13.30
2019-05-16T11:49:17.118Z,13.36
2019-05-16T11:50:17.870Z,13.36
2019-05-16T11:51:17.527Z,13.47
2019-05-16T11:52:18.070Z,13.39
2019-05-16T11:53:17.647Z,13.42
2019-05-16T11:54:17.043Z,13.47
2019-05-16T11:55:17.033Z,13.53
2019-05-16T11:56:17.021Z,13.53
2019-05-16T11:57:17.938Z,13.58
2019-05-16T11:58:17.933Z,13.64
2019-05-16T11:59:16.978Z,13.57
2019-05-16T12:00:18.169Z,13.64
2019-05-16T12:01:16.969Z,13.67
2019-05-16T12:02:17.491Z,13.65
2019-05-16T12:03:17.223Z,13.75
2019-05-16T12:04:17.543Z,13.75
2019-05-16T12:05:17.336Z,13.83
2019-05-16T12:06:17.224Z,13.90
2019-05-16T12:07:19.204Z,14.09
2019-05-16T12:08:17.666Z,14.16
2019-05-16T12:09:17.806Z,14.22
2019-05-16T12:10:16.879Z,14.33
2019-05-16T12:11:17.807Z,14.36
2019-05-16T12:12:20.495Z,14.37
2019-05-16T12:13:27.632Z,14.44
2019-05-16T12:14:17.816Z,14.46
2019-05-16T12:15:19.809Z,14.31
2019-05-16T12:16:18.789Z,14.26
2019-05-16T12:17:16.805Z,14.18
2019-05-16T12:18:17.450Z,14.08
2019-05-16T12:19:18.238Z,14.09
2019-05-16T12:20:16.821Z,14.03
2019-05-16T12:21:17.230Z,14.00
2019-05-16T12:22:18.339Z,13.86
2019-05-16T12:23:17.264Z,13.78
2019-05-16T12:24:31.853Z,13.88
2019-05-16T12:25:17.704Z,13.71
2019-05-16T12:26:17.527Z,13.73
2019-05-16T12:27:17.230Z,13.73
2019-05-16T12:28:17.012Z,13.83
2019-05-16T12:29:17.331Z,13.76
2019-05-16T12:30:17.654Z,13.68
2019-05-16T12:31:17.427Z,13.71
2019-05-16T12:32:17.070Z,13.68
2019-05-16T12:33:18.858Z,13.75
2019-05-16T12:34:16.598Z,13.82
2019-05-16T12:35:17.657Z,13.79
2019-05-16T12:36:17.606Z,13.75
2019-05-16T12:37:16.574Z,13.67
2019-05-16T12:38:17.237Z,13.76
2019-05-16T12:39:17.242Z,13.83
2019-05-16T12:40:16.526Z,13.88
2019-05-16T12:41:16.543Z,13.82
2019-05-16T12:42:16.526Z,13.83
2019-05-16T12:43:17.985Z,13.83
2019-05-16T12:44:16.503Z,13.91
2019-05-16T12:45:16.473Z,13.91
2019-05-16T12:46:16.468Z,13.79
2019-05-16T12:47:16.476Z,13.75
2019-05-16T12:48:20.084Z,13.80
2019-05-16T12:49:17.556Z,13.80
2019-05-16T12:50:17.747Z,13.79
2019-05-16T12:51:17.248Z,13.72
2019-05-16T12:52:16.468Z,13.65
2019-05-16T12:53:16.386Z,13.79
2019-05-16T12:54:18.211Z,13.75
2019-05-16T12:55:16.656Z,13.80
2019-05-16T12:56:17.537Z,13.78
2019-05-16T12:57:18.150Z,13.78
2019-05-16T12:58:24.809Z,13.75
2019-05-16T12:59:20.373Z,13.73
2019-05-16T13:00:18.713Z,13.73
2019-05-16T13:01:20.255Z,13.79
2019-05-16T13:02:16.322Z,13.85
2019-05-16T13:03:16.281Z,13.82
2019-05-16T13:04:18.983Z,13.88